createdAt,value
2018-12-13T00:01:06.550Z,10.17
2018-12-13T00:03:37.850Z,10.23
2018-12-13T00:06:08.804Z,11.33
2018-12-13T00:08:37.785Z,13.27
2018-12-13T00:11:06.724Z,12.23
2018-12-13T00:13:35.653Z,11.40
2018-12-13T00:16:05.632Z,9.80
2018-12-13T00:18:34.631Z,11.10
2018-12-13T00:21:03.724Z,12.60
2018-12-13T00:23:32.599Z,10.70
2018-12-13T00:26:01.517Z,8.37
2018-12-13T00:28:30.379Z,11.13
2018-12-13T00:30:59.220Z,11.87
2018-12-13T00:33:28.110Z,12.03
2018-12-13T00:36:08.858Z,12.40
2018-12-13T00:38:37.723Z,11.97
2018-12-13T00:41:10.099Z,10.33
2018-12-13T00:43:39.939Z,10.63
2018-12-13T00:46:08.980Z,11.43
2018-12-13T00:48:37.876Z,11.47
2018-12-13T00:51:06.725Z,11.87
2018-12-13T00:53:35.601Z,11.40
2018-12-13T00:56:04.568Z,13.00
2018-12-13T00:58:33.494Z,10.83
2018-12-13T01:01:02.593Z,13.25
2018-12-13T01:03:31.535Z,10.23
2018-12-13T01:06:00.433Z,11.07
2018-12-13T01:08:30.261Z,10.27
2018-12-13T01:10:59.103Z,11.90
2018-12-13T01:13:28.123Z,11.83
2018-12-13T01:15:57.021Z,11.83
2018-12-13T01:18:25.999Z,11.87
2018-12-13T01:20:54.939Z,11.40
2018-12-13T01:23:24.052Z,11.87
2018-12-13T01:25:53.919Z,12.17
2018-12-13T01:28:22.791Z,12.07
2018-12-13T01:30:51.832Z,10.17
2018-12-13T01:33:20.682Z,11.30
2018-12-13T01:35:49.613Z,13.87
2018-12-13T01:38:18.505Z,11.63
2018-12-13T01:40:47.406Z,11.20
2018-12-13T01:43:19.876Z,13.80
2018-12-13T01:45:48.802Z,13.97
2018-12-13T01:48:17.697Z,13.40
2018-12-13T01:50:46.597Z,12.73
2018-12-13T01:53:15.466Z,12.50
2018-12-13T01:55:44.324Z,12.60
2018-12-13T01:58:13.253Z,14.00
2018-12-13T02:05:47.139Z,13.97
2018-12-13T02:08:16.028Z,14.70
2018-12-13T02:10:45.013Z,15.67
2018-12-13T02:13:13.927Z,13.73
2018-12-13T02:15:42.873Z,13.83
2018-12-13T02:18:11.752Z,15.77
2018-12-13T02:20:40.637Z,11.97
2018-12-13T02:23:09.474Z,13.55
2018-12-13T02:25:38.504Z,13.77
2018-12-13T02:28:07.488Z,13.80
2018-12-13T02:30:36.407Z,14.47
2018-12-13T02:33:05.200Z,12.73
2018-12-13T02:35:34.096Z,12.30
2018-12-13T02:38:03.291Z,16.32
2018-12-13T02:40:32.240Z,15.90
2018-12-13T02:43:01.161Z,13.70
2018-12-13T02:45:30.114Z,14.53
2018-12-13T02:47:59.066Z,14.07
2018-12-13T02:50:29.154Z,12.80
2018-12-13T02:53:02.806Z,17.20
2018-12-13T02:55:32.482Z,15.35
2018-12-13T02:58:01.592Z,15.30
2018-12-13T03:00:30.536Z,13.23
2018-12-13T03:02:59.471Z,13.35
2018-12-13T03:05:28.397Z,11.33
2018-12-13T03:07:57.663Z,11.13
2018-12-13T03:10:26.820Z,12.80
2018-12-13T03:12:55.897Z,13.15
2018-12-13T03:15:24.815Z,13.37
2018-12-13T03:17:54.214Z,13.67
2018-12-13T03:20:23.214Z,12.97
2018-12-13T03:22:52.152Z,12.37
2018-12-13T03:25:21.105Z,12.47
2018-12-13T03:27:50.048Z,12.50
2018-12-13T03:30:23.725Z,11.97
2018-12-13T03:32:52.643Z,15.87
2018-12-13T03:35:21.601Z,12.40
2018-12-13T03:37:52.460Z,13.18
2018-12-13T03:40:21.390Z,13.45
2018-12-13T03:42:50.449Z,13.50
2018-12-13T03:45:20.264Z,11.38
2018-12-13T03:47:49.344Z,12.83
2018-12-13T03:50:18.241Z,12.53
2018-12-13T03:52:47.159Z,11.87
2018-12-13T03:55:16.081Z,11.23
2018-12-13T03:57:45.129Z,12.07
2018-12-13T04:00:13.977Z,11.40
2018-12-13T04:02:43.007Z,11.15
2018-12-13T04:05:11.897Z,14.80
2018-12-13T04:07:42.343Z,10.80
2018-12-13T04:10:11.330Z,11.83
2018-12-13T04:17:45.084Z,12.30
2018-12-13T04:20:15.903Z,12.33
2018-12-13T04:22:44.755Z,14.77
2018-12-13T04:25:16.549Z,10.77
2018-12-13T04:27:45.574Z,10.50
2018-12-13T04:30:14.455Z,10.33
2018-12-13T04:32:43.259Z,12.53
2018-12-13T04:35:12.267Z,10.53
2018-12-13T04:37:41.117Z,13.03
2018-12-13T04:45:15.010Z,11.43
2018-12-13T04:47:43.943Z,12.40
2018-12-13T04:50:12.850Z,13.27
2018-12-13T04:52:41.745Z,10.93
2018-12-13T04:55:10.691Z,10.27
2018-12-13T04:57:39.665Z,10.65
2018-12-13T05:00:09.281Z,12.90
2018-12-13T05:02:38.195Z,9.60
2018-12-13T05:05:07.301Z,9.97
2018-12-13T05:07:41.521Z,11.08
2018-12-13T05:10:07.603Z,13.87
2018-12-13T05:12:36.563Z,12.27
2018-12-13T05:15:05.933Z,12.07
2018-12-13T05:17:34.956Z,11.17
2018-12-13T05:20:04.588Z,12.30
2018-12-13T05:22:33.516Z,11.90
2018-12-13T05:25:02.404Z,10.30
2018-12-13T05:27:31.390Z,12.17
2018-12-13T05:30:00.349Z,10.82
2018-12-13T05:32:29.250Z,12.33
2018-12-13T05:40:02.801Z,9.77
2018-12-13T05:42:32.360Z,10.40
2018-12-13T05:45:01.339Z,9.67
2018-12-13T05:47:30.243Z,9.03
2018-12-13T05:49:59.266Z,9.80
2018-12-13T05:52:28.221Z,10.43
2018-12-13T05:54:57.108Z,11.03
2018-12-13T05:57:26.091Z,12.25
2018-12-13T05:59:55.084Z,10.58
2018-12-13T06:07:29.194Z,9.20
2018-12-13T06:09:57.989Z,10.40
2018-12-13T06:12:26.865Z,11.13
2018-12-13T06:14:55.788Z,13.37
2018-12-13T06:17:25.870Z,10.60
2018-12-13T06:19:55.027Z,13.13
2018-12-13T06:22:25.105Z,12.27
2018-12-13T06:24:54.061Z,11.33
2018-12-13T06:27:23.111Z,14.77
2018-12-13T06:29:58.533Z,12.40
2018-12-13T06:32:23.200Z,11.87
2018-12-13T06:34:52.454Z,10.00
2018-12-13T06:37:21.368Z,13.40
2018-12-13T06:39:50.351Z,10.27
2018-12-13T06:42:19.247Z,10.10
2018-12-13T06:44:48.101Z,14.60
2018-12-13T06:47:16.992Z,10.23
2018-12-13T06:49:45.990Z,11.73
2018-12-13T06:52:14.950Z,13.18
2018-12-13T06:54:43.987Z,11.20
2018-12-13T06:57:13.445Z,12.82
2018-12-13T06:59:42.480Z,11.00
2018-12-13T07:02:11.502Z,13.57
2018-12-13T07:04:40.351Z,12.37
2018-12-13T07:07:09.278Z,12.20
2018-12-13T07:09:38.239Z,12.95
2018-12-13T07:12:07.227Z,12.63
2018-12-13T07:14:36.335Z,12.47
2018-12-13T07:17:06.304Z,15.00
2018-12-13T07:19:35.523Z,10.53
2018-12-13T07:22:04.819Z,13.98
2018-12-13T07:24:41.184Z,11.60
2018-12-13T07:27:10.346Z,14.50
2018-12-13T07:29:40.683Z,12.77
2018-12-13T07:32:09.684Z,13.03
2018-12-13T07:34:38.774Z,13.78
2018-12-13T07:37:07.641Z,13.23
2018-12-13T07:39:36.611Z,14.50
2018-12-13T07:42:05.639Z,12.40
2018-12-13T07:44:34.520Z,12.53
2018-12-13T07:47:03.419Z,14.03
2018-12-13T07:49:32.319Z,14.87
2018-12-13T07:52:01.322Z,15.00
2018-12-13T07:54:30.158Z,13.83
2018-12-13T07:56:59.104Z,13.67
2018-12-13T07:59:27.944Z,14.53
2018-12-13T08:01:56.819Z,13.45
2018-12-13T08:04:25.798Z,13.00
2018-12-13T08:06:54.863Z,15.60
2018-12-13T08:09:23.832Z,13.13
2018-12-13T08:11:52.922Z,14.20
2018-12-13T08:14:23.192Z,12.23
2018-12-13T08:16:52.207Z,12.83
2018-12-13T08:19:23.333Z,13.93
2018-12-13T08:21:54.140Z,11.37
2018-12-13T08:24:23.205Z,11.70
2018-12-13T08:26:54.099Z,13.07
2018-12-13T08:29:23.124Z,12.77
2018-12-13T08:31:51.973Z,11.97
2018-12-13T08:34:20.863Z,10.77
2018-12-13T08:36:49.740Z,11.80
2018-12-13T08:39:18.663Z,12.40
2018-12-13T08:41:48.254Z,9.63
2018-12-13T08:44:17.204Z,13.20
2018-12-13T08:46:46.159Z,11.90
2018-12-13T08:49:15.044Z,11.13
2018-12-13T08:51:43.910Z,13.77
2018-12-13T08:56:49.299Z,13.80
2018-12-13T08:59:18.248Z,10.70
2018-12-13T09:01:47.243Z,12.03
2018-12-13T09:04:16.265Z,14.58
2018-12-13T09:06:45.169Z,11.07
2018-12-13T09:09:14.167Z,13.60
2018-12-13T09:11:43.062Z,11.30
2018-12-13T09:19:16.348Z,11.93
2018-12-13T09:21:45.574Z,12.93
2018-12-13T09:24:14.722Z,11.97
2018-12-13T09:26:43.543Z,11.80
2018-12-13T09:29:12.480Z,11.63
2018-12-13T09:31:41.543Z,10.70
2018-12-13T09:34:10.566Z,13.08
2018-12-13T09:38:27.441Z,10.87
2018-12-13T09:40:56.587Z,11.93
2018-12-13T09:43:25.593Z,10.80
2018-12-13T09:45:54.639Z,11.57
2018-12-13T09:48:23.552Z,13.53
2018-12-13T09:50:52.669Z,11.23
2018-12-13T09:53:21.594Z,12.10
2018-12-13T09:55:51.485Z,9.53
2018-12-13T09:58:20.428Z,13.60
2018-12-13T10:00:49.479Z,12.57
2018-12-13T10:03:18.422Z,13.55
2018-12-13T10:05:47.542Z,11.93
2018-12-13T10:08:17.088Z,13.20
2018-12-13T10:10:46.394Z,13.57
2018-12-13T10:13:15.770Z,13.40
2018-12-13T10:15:44.924Z,12.07
2018-12-13T10:18:57.983Z,12.47
2018-12-13T10:21:27.087Z,14.67
2018-12-13T10:23:56.337Z,14.27
2018-12-13T10:26:25.502Z,13.50
2018-12-13T10:28:54.509Z,13.63
2018-12-13T10:36:21.551Z,13.60
2018-12-13T10:38:53.229Z,13.37
2018-12-13T10:41:21.336Z,13.03
2018-12-13T10:43:50.260Z,14.10
2018-12-13T10:46:19.354Z,13.03
2018-12-13T10:48:48.212Z,13.70
2018-12-13T10:51:17.157Z,16.00
2018-12-13T10:53:46.142Z,14.45
2018-12-13T10:56:15.198Z,11.90
2018-12-13T10:58:44.095Z,15.80
2018-12-13T11:01:18.480Z,14.80
2018-12-13T11:03:47.446Z,14.37
2018-12-13T11:06:16.397Z,13.17
2018-12-13T11:08:45.527Z,12.77
2018-12-13T11:11:14.356Z,11.43
2018-12-13T11:13:43.462Z,14.87
2018-12-13T11:16:12.355Z,11.67
2018-12-13T11:18:41.309Z,10.93
2018-12-13T11:21:10.241Z,15.37
2018-12-13T11:23:39.250Z,13.97
2018-12-13T11:26:08.156Z,16.07
2018-12-13T11:29:46.668Z,14.73
2018-12-13T11:32:15.648Z,14.50
2018-12-13T11:34:44.546Z,15.37
2018-12-13T11:37:13.422Z,16.37
2018-12-13T11:39:42.295Z,16.45
2018-12-13T11:42:11.216Z,15.10
2018-12-13T11:44:40.201Z,14.30
2018-12-13T11:47:09.099Z,14.53
2018-12-13T11:49:38.043Z,15.43
2018-12-13T11:52:07.006Z,11.30
2018-12-13T11:54:42.288Z,16.40
2018-12-13T11:57:11.743Z,15.83
2018-12-13T11:59:40.634Z,11.77
2018-12-13T12:02:09.578Z,12.43
2018-12-13T12:04:38.517Z,14.77
2018-12-13T12:07:07.381Z,15.15
2018-12-13T12:09:36.460Z,14.37
2018-12-13T12:12:05.651Z,14.23
2018-12-13T12:14:34.545Z,15.80
2018-12-13T12:17:03.511Z,15.83
2018-12-13T12:19:32.408Z,14.97
2018-12-13T12:22:01.370Z,17.03
2018-12-13T12:27:13.789Z,16.42
2018-12-13T12:29:44.022Z,16.70
2018-12-13T12:32:14.214Z,15.33
2018-12-13T12:34:43.220Z,14.07
2018-12-13T12:37:12.161Z,14.73
2018-12-13T12:39:41.117Z,16.23
2018-12-13T12:42:10.045Z,13.50
2018-12-13T12:44:41.559Z,16.95
2018-12-13T12:47:11.784Z,15.47
2018-12-13T12:49:40.900Z,13.00
2018-12-13T12:52:10.052Z,15.87
2018-12-13T12:54:38.969Z,15.33
2018-12-13T12:57:07.904Z,16.93
2018-12-13T12:59:38.506Z,14.57
2018-12-13T13:02:07.719Z,19.07
2018-12-13T13:04:36.798Z,14.70
2018-12-13T13:07:05.739Z,15.50
2018-12-13T13:09:34.686Z,14.17
2018-12-13T13:12:03.702Z,14.87
2018-12-13T13:14:32.869Z,11.13
2018-12-13T13:17:01.709Z,12.50
2018-12-13T13:19:30.766Z,15.43
2018-12-13T13:21:59.624Z,15.53
2018-12-13T13:24:28.596Z,11.57
2018-12-13T13:26:58.483Z,16.03
2018-12-13T13:29:27.361Z,15.80
2018-12-13T13:31:56.212Z,15.70
2018-12-13T13:34:25.424Z,17.17
2018-12-13T13:36:54.421Z,18.35
2018-12-13T13:39:23.293Z,16.57
2018-12-13T13:41:52.173Z,19.80
2018-12-13T13:44:21.495Z,17.10
2018-12-13T13:46:50.405Z,17.67
2018-12-13T13:54:23.440Z,14.93
2018-12-13T13:56:52.322Z,17.37
2018-12-13T13:59:22.345Z,11.73
2018-12-13T14:01:51.312Z,13.77
2018-12-13T14:04:20.342Z,16.27
2018-12-13T14:06:49.387Z,17.87
2018-12-13T14:09:18.305Z,16.17
2018-12-13T14:11:47.400Z,16.50
2018-12-13T14:14:16.362Z,17.77
2018-12-13T14:16:45.417Z,14.83
2018-12-13T14:19:14.348Z,16.67
2018-12-13T14:21:43.208Z,17.43
2018-12-13T14:24:12.073Z,16.00
2018-12-13T14:26:40.997Z,16.60
2018-12-13T14:29:09.991Z,17.53
2018-12-13T14:31:38.983Z,17.37
2018-12-13T14:34:08.051Z,15.75
2018-12-13T14:36:38.855Z,16.63
2018-12-13T14:39:08.164Z,18.93
2018-12-13T14:41:39.047Z,17.80
2018-12-13T14:44:22.776Z,18.33
2018-12-13T14:46:51.927Z,16.33
2018-12-13T14:51:57.204Z,14.73
2018-12-13T14:54:27.360Z,18.77
2018-12-13T14:56:56.458Z,17.35
2018-12-13T14:59:25.295Z,19.85
2018-12-13T15:01:54.451Z,18.70
2018-12-13T15:04:24.358Z,16.37
2018-12-13T15:06:53.367Z,17.53
2018-12-13T15:09:22.209Z,13.40
2018-12-13T15:11:51.068Z,14.73
2018-12-13T15:14:20.016Z,18.67
2018-12-13T15:16:48.913Z,14.20
2018-12-13T15:19:18.370Z,15.27
2018-12-13T15:21:47.355Z,17.73
2018-12-13T15:24:16.304Z,16.77
2018-12-13T15:26:46.302Z,16.27
2018-12-13T15:29:16.965Z,14.63
2018-12-13T15:31:47.262Z,15.70
2018-12-13T15:34:16.146Z,17.57
2018-12-13T15:36:45.115Z,19.60
2018-12-13T15:39:14.030Z,17.07
2018-12-13T15:41:42.920Z,16.97
2018-12-13T15:44:11.773Z,17.30
2018-12-13T15:46:40.872Z,15.43
2018-12-13T15:49:09.858Z,14.67
2018-12-13T15:51:38.855Z,19.50
2018-12-13T15:54:08.636Z,18.57
2018-12-13T15:56:37.440Z,23.33
2018-12-13T15:59:06.390Z,15.93
2018-12-13T16:01:35.239Z,18.20
2018-12-13T16:04:04.291Z,14.77
2018-12-13T16:06:33.225Z,24.32
2018-12-13T16:09:02.412Z,16.93
2018-12-13T16:11:32.719Z,15.93
2018-12-13T16:14:01.615Z,16.47
2018-12-13T16:16:30.637Z,19.03
2018-12-13T16:19:00.049Z,20.47
2018-12-13T16:21:28.999Z,20.43
2018-12-13T16:23:57.903Z,16.50
2018-12-13T16:26:26.726Z,18.27
2018-12-13T16:28:56.179Z,15.83
2018-12-13T16:31:25.061Z,17.10
2018-12-13T16:33:53.973Z,19.10
2018-12-13T16:36:22.980Z,19.80
2018-12-13T16:38:52.019Z,17.60
2018-12-13T16:41:20.946Z,17.43
2018-12-13T16:43:49.998Z,18.37
2018-12-13T16:46:20.907Z,16.67
2018-12-13T16:48:50.668Z,22.77
2018-12-13T16:51:21.037Z,17.97
2018-12-13T16:53:52.582Z,18.20
2018-12-13T16:56:22.351Z,18.60
2018-12-13T16:58:52.565Z,18.92
2018-12-13T17:01:22.176Z,22.20
2018-12-13T17:03:52.863Z,18.53
2018-12-13T17:06:22.719Z,22.50
2018-12-13T17:08:53.518Z,24.70
2018-12-13T17:11:23.794Z,19.40
2018-12-13T17:13:53.544Z,20.27
2018-12-13T17:16:23.826Z,20.47
2018-12-13T17:18:53.828Z,22.30
2018-12-13T17:21:23.650Z,23.05
2018-12-13T17:23:53.786Z,23.43
2018-12-13T17:26:23.780Z,24.87
2018-12-13T17:31:37.168Z,32.67
2018-12-13T17:34:08.142Z,34.13
2018-12-13T17:36:38.025Z,36.53
2018-12-13T17:39:07.931Z,30.97
2018-12-13T17:41:39.867Z,33.10
2018-12-13T17:44:09.931Z,30.93
2018-12-13T17:46:39.760Z,35.63
2018-12-13T17:49:10.746Z,29.43
2018-12-13T17:51:41.328Z,26.07
2018-12-13T17:54:11.094Z,25.93
2018-12-13T17:56:40.494Z,22.10
2018-12-13T17:59:09.731Z,23.90
2018-12-13T18:01:38.768Z,18.83
2018-12-13T18:04:07.680Z,19.47
2018-12-13T18:06:36.821Z,18.63
2018-12-13T18:09:08.022Z,18.20
2018-12-13T18:11:37.276Z,20.57
2018-12-13T18:14:06.324Z,17.77
2018-12-13T18:16:35.246Z,15.63
2018-12-13T18:19:07.495Z,15.47
2018-12-13T18:21:36.410Z,13.97
2018-12-13T18:24:06.318Z,11.27
2018-12-13T18:26:35.216Z,16.23
2018-12-13T18:29:04.362Z,15.93
2018-12-13T18:31:33.364Z,15.80
2018-12-13T18:34:02.494Z,13.00
2018-12-13T18:36:31.503Z,14.37
2018-12-13T18:39:01.588Z,13.00
2018-12-13T18:41:31.730Z,13.00
2018-12-13T18:44:00.681Z,18.27
2018-12-13T18:46:29.632Z,17.37
2018-12-13T18:48:58.700Z,17.85
2018-12-13T18:51:28.420Z,13.53
2018-12-13T18:53:57.433Z,15.27
2018-12-13T18:56:26.489Z,13.37
2018-12-13T18:58:55.482Z,14.47
2018-12-13T19:01:24.597Z,16.17
2018-12-13T19:03:53.470Z,14.65
2018-12-13T19:06:23.580Z,12.97
2018-12-13T19:08:52.521Z,16.10
2018-12-13T19:11:21.497Z,14.53
2018-12-13T19:13:50.517Z,17.47
2018-12-13T19:16:19.574Z,15.67
2018-12-13T19:18:48.508Z,15.37
2018-12-13T19:21:17.501Z,16.30
2018-12-13T19:23:46.432Z,13.77
2018-12-13T19:26:16.401Z,18.83
2018-12-13T19:28:46.454Z,15.03
2018-12-13T19:31:15.388Z,15.98
2018-12-13T19:33:44.329Z,17.83
2018-12-13T19:36:15.700Z,15.25
2018-12-13T19:38:44.768Z,14.67
2018-12-13T19:41:13.800Z,16.20
2018-12-13T19:43:42.957Z,16.37
2018-12-13T19:46:12.057Z,14.33
2018-12-13T19:48:42.050Z,18.47
2018-12-13T19:51:11.266Z,16.47
2018-12-13T19:53:42.069Z,17.43
2018-12-13T19:56:11.960Z,16.87
2018-12-13T19:58:43.478Z,14.83
2018-12-13T20:01:12.754Z,14.53
2018-12-13T20:06:27.575Z,17.73
2018-12-13T20:08:56.456Z,17.90
2018-12-13T20:11:27.017Z,19.03
2018-12-13T20:13:56.161Z,18.10
2018-12-13T20:16:26.469Z,21.17
2018-12-13T20:18:55.446Z,19.17
2018-12-13T20:21:25.471Z,19.60
2018-12-13T20:23:54.618Z,23.07
2018-12-13T20:26:23.533Z,20.07
2018-12-13T20:28:52.509Z,17.53
2018-12-13T20:31:23.543Z,16.63
2018-12-13T20:33:52.637Z,18.80
2018-12-13T20:36:24.922Z,16.27
2018-12-13T20:38:54.931Z,16.53
2018-12-13T20:41:23.903Z,14.77
2018-12-13T20:43:52.911Z,17.57
2018-12-13T20:46:21.974Z,17.93
2018-12-13T20:48:50.908Z,18.70
2018-12-13T20:51:20.863Z,16.83
2018-12-13T20:53:49.832Z,18.77
2018-12-13T21:03:41.520Z,14.20
2018-12-13T21:06:10.453Z,15.20
2018-12-13T21:08:39.434Z,17.33
2018-12-13T21:11:08.586Z,14.57
2018-12-13T21:13:38.680Z,16.25
2018-12-13T21:16:07.590Z,16.23
2018-12-13T21:18:36.675Z,14.13
2018-12-13T21:21:06.657Z,18.92
2018-12-13T21:23:35.583Z,15.60
2018-12-13T21:26:04.631Z,15.67
2018-12-13T21:28:33.956Z,16.03
2018-12-13T21:31:02.948Z,16.27
2018-12-13T21:33:32.000Z,17.13
2018-12-13T21:36:02.228Z,15.88
2018-12-13T21:38:31.926Z,16.70
2018-12-13T21:41:02.229Z,14.63
2018-12-13T21:43:31.273Z,15.40
2018-12-13T21:46:00.222Z,15.83
2018-12-13T21:48:29.307Z,15.60
2018-12-13T21:50:58.434Z,17.20
2018-12-13T21:53:27.829Z,17.20
2018-12-13T21:55:56.720Z,18.43
2018-12-13T21:58:25.706Z,14.55
2018-12-13T22:00:54.942Z,15.23
2018-12-13T22:03:23.932Z,15.00
2018-12-13T22:05:52.921Z,16.40
2018-12-13T22:08:25.008Z,17.07
2018-12-13T22:10:53.983Z,16.53
2018-12-13T22:13:24.083Z,17.17
2018-12-13T22:15:53.073Z,17.23
2018-12-13T22:18:23.198Z,15.87
2018-12-13T22:20:52.099Z,16.97
2018-12-13T22:23:23.744Z,16.27
2018-12-13T22:25:52.627Z,18.17
2018-12-13T22:28:21.624Z,19.10
2018-12-13T22:30:50.528Z,17.27
2018-12-13T22:33:19.471Z,17.90
2018-12-13T22:35:48.525Z,15.70
2018-12-13T22:38:17.632Z,19.40
2018-12-13T22:40:46.836Z,17.90
2018-12-13T22:43:20.529Z,19.13
2018-12-13T22:45:46.717Z,19.57
2018-12-13T22:48:16.675Z,18.97
2018-12-13T22:50:45.640Z,17.03
2018-12-13T22:53:14.658Z,18.00
2018-12-13T22:55:43.443Z,17.37
2018-12-13T22:58:12.367Z,18.17
2018-12-13T23:00:42.186Z,19.20
2018-12-13T23:03:13.451Z,18.53
2018-12-13T23:05:45.311Z,18.30
2018-12-13T23:08:15.101Z,19.07
2018-12-13T23:10:44.018Z,19.90
2018-12-13T23:13:12.909Z,17.73
2018-12-13T23:15:41.845Z,18.37
2018-12-13T23:18:10.828Z,19.00
2018-12-13T23:20:39.842Z,17.25
2018-12-13T23:23:08.668Z,19.13
2018-12-13T23:25:37.533Z,21.03
2018-12-13T23:28:06.365Z,18.00
2018-12-13T23:30:35.247Z,18.63
2018-12-13T23:33:04.190Z,24.97
2018-12-13T23:35:33.016Z,15.90
2018-12-13T23:38:01.940Z,26.15
2018-12-13T23:40:30.936Z,17.47
2018-12-13T23:42:59.909Z,20.05
2018-12-13T23:45:28.816Z,17.37
2018-12-13T23:47:57.715Z,21.62
2018-12-13T23:50:26.612Z,21.10
2018-12-13T23:52:57.821Z,21.17
2018-12-13T23:55:26.676Z,18.47
2018-12-13T23:57:55.520Z,22.77
